sensor_id;sensor_type;location;lat;lon;timestamp;P1;durP1;ratioP1;P2;durP2;ratioP2
19057;SDS011;9662;53.612;9.914;2022-10-13T00:02:18;6.70;;;3.13;;
19057;SDS011;9662;53.612;9.914;2022-10-13T00:04:45;6.95;;;3.00;;
19057;SDS011;9662;53.612;9.914;2022-10-13T00:07:11;3.83;;;2.70;;
19057;SDS011;9662;53.612;9.914;2022-10-13T00:09:38;4.25;;;2.92;;
19057;SDS011;9662;53.612;9.914;2022-10-13T00:12:05;6.93;;;3.00;;
19057;SDS011;9662;53.612;9.914;2022-10-13T00:14:33;6.33;;;3.17;;
19057;SDS011;9662;53.612;9.914;2022-10-13T00:17:00;3.43;;;3.13;;
19057;SDS011;9662;53.612;9.914;2022-10-13T00:19:26;8.18;;;3.28;;
19057;SDS011;9662;53.612;9.914;2022-10-13T00:21:55;3.63;;;2.80;;
19057;SDS011;9662;53.612;9.914;2022-10-13T00:24:22;4.07;;;2.80;;
19057;SDS011;9662;53.612;9.914;2022-10-13T00:26:49;4.57;;;2.90;;
19057;SDS011;9662;53.612;9.914;2022-10-13T00:29:16;5.53;;;3.13;;
19057;SDS011;9662;53.612;9.914;2022-10-13T00:31:44;3.40;;;3.05;;
19057;SDS011;9662;53.612;9.914;2022-10-13T00:34:11;3.33;;;2.90;;
19057;SDS011;9662;53.612;9.914;2022-10-13T00:36:37;3.40;;;3.10;;
19057;SDS011;9662;53.612;9.914;2022-10-13T00:39:04;3.40;;;3.03;;
19057;SDS011;9662;53.612;9.914;2022-10-13T00:41:31;3.47;;;2.90;;
19057;SDS011;9662;53.612;9.914;2022-10-13T00:43:58;5.00;;;2.97;;
19057;SDS011;9662;53.612;9.914;2022-10-13T00:46:26;6.18;;;2.90;;
19057;SDS011;9662;53.612;9.914;2022-10-13T00:48:57;3.75;;;2.65;;
19057;SDS011;9662;53.612;9.914;2022-10-13T00:51:27;5.53;;;3.08;;
19057;SDS011;9662;53.612;9.914;2022-10-13T00:53:57;3.88;;;2.90;;
19057;SDS011;9662;53.612;9.914;2022-10-13T00:56:24;7.03;;;2.75;;
19057;SDS011;9662;53.612;9.914;2022-10-13T00:58:52;4.82;;;2.47;;
19057;SDS011;9662;53.612;9.914;2022-10-13T01:01:21;8.50;;;2.92;;
19057;SDS011;9662;53.612;9.914;2022-10-13T01:03:47;3.85;;;2.80;;
19057;SDS011;9662;53.612;9.914;2022-10-13T01:06:16;5.32;;;2.85;;
19057;SDS011;9662;53.612;9.914;2022-10-13T01:08:43;7.03;;;3.00;;
19057;SDS011;9662;53.612;9.914;2022-10-13T01:11:14;6.88;;;3.00;;
19057;SDS011;9662;53.612;9.914;2022-10-13T01:13:49;4.90;;;2.70;;
19057;SDS011;9662;53.612;9.914;2022-10-13T01:16:22;5.95;;;3.45;;
19057;SDS011;9662;53.612;9.914;2022-10-13T01:18:59;6.05;;;2.90;;
19057;SDS011;9662;53.612;9.914;2022-10-13T01:21:40;4.55;;;2.95;;
19057;SDS011;9662;53.612;9.914;2022-10-13T01:24:24;2.60;;;2.40;;
19057;SDS011;9662;53.612;9.914;2022-10-13T01:27:07;3.50;;;2.80;;
19057;SDS011;9662;53.612;9.914;2022-10-13T01:35:48;3.85;;;2.70;;
19057;SDS011;9662;53.612;9.914;2022-10-13T01:38:24;9.27;;;3.25;;
19057;SDS011;9662;53.612;9.914;2022-10-13T01:40:59;7.07;;;3.50;;
19057;SDS011;9662;53.612;9.914;2022-10-13T01:43:30;5.22;;;3.00;;
19057;SDS011;9662;53.612;9.914;2022-10-13T01:46:04;6.07;;;3.50;;
19057;SDS011;9662;53.612;9.914;2022-10-13T01:48:35;3.22;;;2.80;;
19057;SDS011;9662;53.612;9.914;2022-10-13T01:51:04;7.67;;;3.23;;
19057;SDS011;9662;53.612;9.914;2022-10-13T01:53:34;10.60;;;3.47;;
19057;SDS011;9662;53.612;9.914;2022-10-13T01:56:01;5.35;;;3.13;;
19057;SDS011;9662;53.612;9.914;2022-10-13T01:58:28;8.48;;;3.40;;
19057;SDS011;9662;53.612;9.914;2022-10-13T02:01:02;4.45;;;3.30;;
19057;SDS011;9662;53.612;9.914;2022-10-13T02:03:42;4.00;;;2.92;;
19057;SDS011;9662;53.612;9.914;2022-10-13T02:06:18;7.70;;;3.20;;
19057;SDS011;9662;53.612;9.914;2022-10-13T02:08:51;8.93;;;3.30;;
19057;SDS011;9662;53.612;9.914;2022-10-13T02:11:23;3.37;;;3.07;;
19057;SDS011;9662;53.612;9.914;2022-10-13T02:13:52;11.15;;;3.20;;
19057;SDS011;9662;53.612;9.914;2022-10-13T02:16:28;3.10;;;2.80;;
19057;SDS011;9662;53.612;9.914;2022-10-13T02:18:59;3.15;;;2.85;;
19057;SDS011;9662;53.612;9.914;2022-10-13T02:21:29;5.33;;;3.17;;
19057;SDS011;9662;53.612;9.914;2022-10-13T02:23:57;3.92;;;3.10;;
19057;SDS011;9662;53.612;9.914;2022-10-13T02:26:23;3.42;;;3.22;;
19057;SDS011;9662;53.612;9.914;2022-10-13T02:28:50;5.77;;;3.30;;
19057;SDS011;9662;53.612;9.914;2022-10-13T02:31:17;11.70;;;3.05;;
19057;SDS011;9662;53.612;9.914;2022-10-13T02:33:45;5.53;;;3.03;;
19057;SDS011;9662;53.612;9.914;2022-10-13T02:36:12;4.03;;;2.88;;
19057;SDS011;9662;53.612;9.914;2022-10-13T02:38:38;6.93;;;3.20;;
19057;SDS011;9662;53.612;9.914;2022-10-13T02:41:05;5.78;;;3.30;;
19057;SDS011;9662;53.612;9.914;2022-10-13T02:43:32;5.75;;;3.53;;
19057;SDS011;9662;53.612;9.914;2022-10-13T02:46:02;5.40;;;3.53;;
19057;SDS011;9662;53.612;9.914;2022-10-13T02:48:29;4.15;;;2.88;;
19057;SDS011;9662;53.612;9.914;2022-10-13T02:50:57;8.68;;;3.80;;
19057;SDS011;9662;53.612;9.914;2022-10-13T02:53:24;6.90;;;3.30;;
19057;SDS011;9662;53.612;9.914;2022-10-13T02:55:51;4.25;;;2.83;;
19057;SDS011;9662;53.612;9.914;2022-10-13T02:58:17;3.50;;;2.90;;
19057;SDS011;9662;53.612;9.914;2022-10-13T03:00:44;5.40;;;3.20;;
19057;SDS011;9662;53.612;9.914;2022-10-13T03:03:11;4.30;;;2.85;;
19057;SDS011;9662;53.612;9.914;2022-10-13T03:05:38;8.85;;;3.20;;
19057;SDS011;9662;53.612;9.914;2022-10-13T03:08:06;3.83;;;3.00;;
19057;SDS011;9662;53.612;9.914;2022-10-13T03:10:32;3.33;;;2.90;;
19057;SDS011;9662;53.612;9.914;2022-10-13T03:12:59;3.03;;;2.83;;
19057;SDS011;9662;53.612;9.914;2022-10-13T03:15:26;7.18;;;2.95;;
19057;SDS011;9662;53.612;9.914;2022-10-13T03:17:52;6.53;;;2.70;;
19057;SDS011;9662;53.612;9.914;2022-10-13T03:20:19;6.25;;;3.50;;
19057;SDS011;9662;53.612;9.914;2022-10-13T03:22:46;3.65;;;3.05;;
19057;SDS011;9662;53.612;9.914;2022-10-13T03:25:14;3.50;;;3.20;;
19057;SDS011;9662;53.612;9.914;2022-10-13T03:27:41;3.90;;;3.00;;
19057;SDS011;9662;53.612;9.914;2022-10-13T03:30:08;3.22;;;2.85;;
19057;SDS011;9662;53.612;9.914;2022-10-13T03:32:35;5.55;;;3.40;;
19057;SDS011;9662;53.612;9.914;2022-10-13T03:35:02;6.18;;;2.85;;
19057;SDS011;9662;53.612;9.914;2022-10-13T03:37:30;6.80;;;3.28;;
19057;SDS011;9662;53.612;9.914;2022-10-13T03:39:57;7.20;;;3.25;;
19057;SDS011;9662;53.612;9.914;2022-10-13T03:42:25;3.63;;;2.90;;
19057;SDS011;9662;53.612;9.914;2022-10-13T03:44:52;3.53;;;3.22;;
19057;SDS011;9662;53.612;9.914;2022-10-13T03:47:18;5.95;;;2.88;;
19057;SDS011;9662;53.612;9.914;2022-10-13T03:49:45;8.02;;;3.40;;
19057;SDS011;9662;53.612;9.914;2022-10-13T03:52:12;6.07;;;3.67;;
19057;SDS011;9662;53.612;9.914;2022-10-13T03:54:38;4.33;;;3.20;;
19057;SDS011;9662;53.612;9.914;2022-10-13T03:57:05;3.38;;;3.13;;
19057;SDS011;9662;53.612;9.914;2022-10-13T03:59:33;5.60;;;3.20;;
19057;SDS011;9662;53.612;9.914;2022-10-13T04:02:00;5.30;;;2.90;;
19057;SDS011;9662;53.612;9.914;2022-10-13T04:04:26;3.42;;;3.08;;
19057;SDS011;9662;53.612;9.914;2022-10-13T04:06:53;4.10;;;3.70;;
19057;SDS011;9662;53.612;9.914;2022-10-13T04:09:20;3.33;;;3.03;;
19057;SDS011;9662;53.612;9.914;2022-10-13T04:11:48;5.35;;;3.05;;
19057;SDS011;9662;53.612;9.914;2022-10-13T04:14:15;4.20;;;3.05;;
19057;SDS011;9662;53.612;9.914;2022-10-13T04:16:43;5.60;;;3.50;;
19057;SDS011;9662;53.612;9.914;2022-10-13T04:19:10;5.00;;;3.40;;
19057;SDS011;9662;53.612;9.914;2022-10-13T04:21:39;3.83;;;3.53;;
19057;SDS011;9662;53.612;9.914;2022-10-13T04:24:07;6.15;;;3.28;;
19057;SDS011;9662;53.612;9.914;2022-10-13T04:26:35;4.93;;;3.43;;
19057;SDS011;9662;53.612;9.914;2022-10-13T04:29:02;8.00;;;3.25;;
19057;SDS011;9662;53.612;9.914;2022-10-13T04:31:30;5.05;;;3.55;;
19057;SDS011;9662;53.612;9.914;2022-10-13T04:33:58;6.70;;;3.33;;
19057;SDS011;9662;53.612;9.914;2022-10-13T04:36:25;6.20;;;3.40;;
19057;SDS011;9662;53.612;9.914;2022-10-13T04:38:52;2.90;;;2.80;;
19057;SDS011;9662;53.612;9.914;2022-10-13T04:41:20;8.25;;;3.40;;
19057;SDS011;9662;53.612;9.914;2022-10-13T04:43:47;4.38;;;3.25;;
19057;SDS011;9662;53.612;9.914;2022-10-13T04:46:16;3.30;;;3.10;;
19057;SDS011;9662;53.612;9.914;2022-10-13T04:48:44;5.70;;;3.63;;
19057;SDS011;9662;53.612;9.914;2022-10-13T04:51:14;3.63;;;3.40;;
19057;SDS011;9662;53.612;9.914;2022-10-13T04:53:42;3.75;;;3.40;;
19057;SDS011;9662;53.612;9.914;2022-10-13T04:56:10;7.25;;;3.17;;
19057;SDS011;9662;53.612;9.914;2022-10-13T04:58:39;5.53;;;3.30;;
19057;SDS011;9662;53.612;9.914;2022-10-13T05:01:10;4.07;;;3.53;;
19057;SDS011;9662;53.612;9.914;2022-10-13T05:03:38;4.40;;;3.78;;
19057;SDS011;9662;53.612;9.914;2022-10-13T05:06:05;10.40;;;4.10;;
19057;SDS011;9662;53.612;9.914;2022-10-13T05:08:39;5.78;;;3.63;;
19057;SDS011;9662;53.612;9.914;2022-10-13T05:11:05;4.90;;;3.75;;
19057;SDS011;9662;53.612;9.914;2022-10-13T05:13:32;5.88;;;3.65;;
19057;SDS011;9662;53.612;9.914;2022-10-13T05:15:59;4.05;;;3.65;;
19057;SDS011;9662;53.612;9.914;2022-10-13T05:18:25;5.18;;;3.83;;
19057;SDS011;9662;53.612;9.914;2022-10-13T05:20:52;5.53;;;4.83;;
19057;SDS011;9662;53.612;9.914;2022-10-13T05:23:19;4.85;;;4.05;;
19057;SDS011;9662;53.612;9.914;2022-10-13T05:25:47;6.95;;;4.18;;
19057;SDS011;9662;53.612;9.914;2022-10-13T05:28:13;8.90;;;4.18;;
19057;SDS011;9662;53.612;9.914;2022-10-13T05:30:40;5.55;;;4.10;;
19057;SDS011;9662;53.612;9.914;2022-10-13T05:33:07;9.50;;;4.40;;
19057;SDS011;9662;53.612;9.914;2022-10-13T05:35:34;8.10;;;4.07;;
19057;SDS011;9662;53.612;9.914;2022-10-13T05:38:00;7.60;;;4.47;;
19057;SDS011;9662;53.612;9.914;2022-10-13T05:40:27;4.68;;;4.28;;
19057;SDS011;9662;53.612;9.914;2022-10-13T05:42:55;5.25;;;4.10;;
19057;SDS011;9662;53.612;9.914;2022-10-13T05:45:22;7.15;;;4.35;;
19057;SDS011;9662;53.612;9.914;2022-10-13T05:47:50;4.90;;;4.47;;
19057;SDS011;9662;53.612;9.914;2022-10-13T05:50:16;7.10;;;3.90;;
19057;SDS011;9662;53.612;9.914;2022-10-13T05:52:43;5.47;;;4.13;;
19057;SDS011;9662;53.612;9.914;2022-10-13T05:55:11;10.00;;;4.63;;
19057;SDS011;9662;53.612;9.914;2022-10-13T05:57:41;6.13;;;4.30;;
19057;SDS011;9662;53.612;9.914;2022-10-13T06:00:14;7.80;;;4.07;;
19057;SDS011;9662;53.612;9.914;2022-10-13T06:02:44;4.93;;;4.40;;
19057;SDS011;9662;53.612;9.914;2022-10-13T06:05:15;6.30;;;4.03;;
19057;SDS011;9662;53.612;9.914;2022-10-13T06:07:44;4.93;;;4.40;;
19057;SDS011;9662;53.612;9.914;2022-10-13T06:10:12;6.18;;;4.25;;
19057;SDS011;9662;53.612;9.914;2022-10-13T06:12:39;6.37;;;4.40;;
19057;SDS011;9662;53.612;9.914;2022-10-13T06:15:06;7.72;;;5.00;;
19057;SDS011;9662;53.612;9.914;2022-10-13T06:17:35;9.35;;;5.15;;
19057;SDS011;9662;53.612;9.914;2022-10-13T06:20:03;7.47;;;4.40;;
19057;SDS011;9662;53.612;9.914;2022-10-13T06:22:30;6.63;;;4.50;;
19057;SDS011;9662;53.612;9.914;2022-10-13T06:24:58;8.38;;;4.55;;
19057;SDS011;9662;53.612;9.914;2022-10-13T06:27:25;7.97;;;4.50;;
19057;SDS011;9662;53.612;9.914;2022-10-13T06:29:52;4.80;;;4.35;;
19057;SDS011;9662;53.612;9.914;2022-10-13T06:32:19;5.10;;;4.50;;
19057;SDS011;9662;53.612;9.914;2022-10-13T06:34:47;8.60;;;4.85;;
19057;SDS011;9662;53.612;9.914;2022-10-13T06:37:14;5.60;;;5.00;;
19057;SDS011;9662;53.612;9.914;2022-10-13T06:39:41;6.47;;;4.30;;
19057;SDS011;9662;53.612;9.914;2022-10-13T06:42:07;10.25;;;5.15;;
19057;SDS011;9662;53.612;9.914;2022-10-13T06:44:34;10.77;;;5.25;;
19057;SDS011;9662;53.612;9.914;2022-10-13T06:47:01;7.93;;;4.63;;
19057;SDS011;9662;53.612;9.914;2022-10-13T06:49:28;9.90;;;5.45;;
19057;SDS011;9662;53.612;9.914;2022-10-13T06:51:56;7.82;;;5.28;;
19057;SDS011;9662;53.612;9.914;2022-10-13T06:54:22;10.45;;;5.57;;
19057;SDS011;9662;53.612;9.914;2022-10-13T06:56:49;11.75;;;6.65;;
19057;SDS011;9662;53.612;9.914;2022-10-13T06:59:16;5.45;;;5.05;;
19057;SDS011;9662;53.612;9.914;2022-10-13T07:01:43;7.80;;;5.22;;
19057;SDS011;9662;53.612;9.914;2022-10-13T07:04:10;9.88;;;5.70;;
19057;SDS011;9662;53.612;9.914;2022-10-13T07:06:36;8.60;;;5.50;;
19057;SDS011;9662;53.612;9.914;2022-10-13T07:09:04;11.00;;;5.88;;
19057;SDS011;9662;53.612;9.914;2022-10-13T07:11:32;9.73;;;6.75;;
19057;SDS011;9662;53.612;9.914;2022-10-13T07:13:59;12.10;;;6.00;;
19057;SDS011;9662;53.612;9.914;2022-10-13T07:16:26;18.65;;;5.97;;
19057;SDS011;9662;53.612;9.914;2022-10-13T07:18:53;25.35;;;9.10;;
19057;SDS011;9662;53.612;9.914;2022-10-13T07:21:19;10.43;;;5.82;;
19057;SDS011;9662;53.612;9.914;2022-10-13T07:23:46;11.57;;;5.80;;
19057;SDS011;9662;53.612;9.914;2022-10-13T07:26:15;7.60;;;5.32;;
19057;SDS011;9662;53.612;9.914;2022-10-13T07:28:41;12.05;;;5.65;;
19057;SDS011;9662;53.612;9.914;2022-10-13T07:31:09;13.13;;;6.30;;
19057;SDS011;9662;53.612;9.914;2022-10-13T07:33:38;12.52;;;6.03;;
19057;SDS011;9662;53.612;9.914;2022-10-13T07:36:06;11.20;;;6.70;;
19057;SDS011;9662;53.612;9.914;2022-10-13T07:38:33;7.88;;;5.63;;
19057;SDS011;9662;53.612;9.914;2022-10-13T07:41:00;9.57;;;5.82;;
19057;SDS011;9662;53.612;9.914;2022-10-13T07:43:29;7.63;;;6.03;;
19057;SDS011;9662;53.612;9.914;2022-10-13T07:45:56;9.00;;;6.38;;
19057;SDS011;9662;53.612;9.914;2022-10-13T07:48:23;8.45;;;5.90;;
19057;SDS011;9662;53.612;9.914;2022-10-13T07:50:50;13.43;;;6.22;;
19057;SDS011;9662;53.612;9.914;2022-10-13T07:53:17;7.55;;;5.20;;
19057;SDS011;9662;53.612;9.914;2022-10-13T07:55:44;12.80;;;5.87;;
19057;SDS011;9662;53.612;9.914;2022-10-13T07:58:11;7.80;;;5.53;;
19057;SDS011;9662;53.612;9.914;2022-10-13T08:00:39;8.65;;;5.60;;
19057;SDS011;9662;53.612;9.914;2022-10-13T08:03:06;9.32;;;5.50;;
19057;SDS011;9662;53.612;9.914;2022-10-13T08:05:33;9.85;;;5.85;;
19057;SDS011;9662;53.612;9.914;2022-10-13T08:08:01;8.45;;;6.18;;
19057;SDS011;9662;53.612;9.914;2022-10-13T08:10:28;9.23;;;5.55;;
19057;SDS011;9662;53.612;9.914;2022-10-13T08:12:55;10.83;;;5.90;;
19057;SDS011;9662;53.612;9.914;2022-10-13T08:15:22;7.13;;;5.57;;
19057;SDS011;9662;53.612;9.914;2022-10-13T08:17:50;11.25;;;6.85;;
19057;SDS011;9662;53.612;9.914;2022-10-13T08:20:16;11.53;;;6.50;;
19057;SDS011;9662;53.612;9.914;2022-10-13T08:22:43;12.45;;;6.22;;
19057;SDS011;9662;53.612;9.914;2022-10-13T08:25:10;11.25;;;6.10;;
19057;SDS011;9662;53.612;9.914;2022-10-13T08:27:37;10.57;;;5.83;;
19057;SDS011;9662;53.612;9.914;2022-10-13T08:30:04;20.60;;;6.55;;
19057;SDS011;9662;53.612;9.914;2022-10-13T08:32:31;6.73;;;5.87;;
19057;SDS011;9662;53.612;9.914;2022-10-13T08:34:59;11.02;;;6.28;;
19057;SDS011;9662;53.612;9.914;2022-10-13T08:37:26;8.73;;;5.75;;
19057;SDS011;9662;53.612;9.914;2022-10-13T08:39:53;12.38;;;6.20;;
19057;SDS011;9662;53.612;9.914;2022-10-13T08:42:20;8.87;;;6.30;;
19057;SDS011;9662;53.612;9.914;2022-10-13T08:44:48;32.03;;;6.85;;
19057;SDS011;9662;53.612;9.914;2022-10-13T08:47:19;11.00;;;6.78;;
19057;SDS011;9662;53.612;9.914;2022-10-13T08:49:56;12.05;;;6.55;;
19057;SDS011;9662;53.612;9.914;2022-10-13T08:52:27;17.10;;;6.70;;
19057;SDS011;9662;53.612;9.914;2022-10-13T08:55:07;13.60;;;6.70;;
19057;SDS011;9662;53.612;9.914;2022-10-13T08:57:40;8.20;;;6.80;;
19057;SDS011;9662;53.612;9.914;2022-10-13T09:00:09;12.47;;;7.27;;
19057;SDS011;9662;53.612;9.914;2022-10-13T09:02:38;13.15;;;7.35;;
19057;SDS011;9662;53.612;9.914;2022-10-13T09:05:08;9.32;;;6.10;;
19057;SDS011;9662;53.612;9.914;2022-10-13T09:07:43;20.02;;;7.63;;
19057;SDS011;9662;53.612;9.914;2022-10-13T09:10:11;15.40;;;7.13;;
19057;SDS011;9662;53.612;9.914;2022-10-13T09:12:39;19.30;;;7.10;;
19057;SDS011;9662;53.612;9.914;2022-10-13T09:15:06;14.30;;;7.72;;
19057;SDS011;9662;53.612;9.914;2022-10-13T09:17:35;13.60;;;7.22;;
19057;SDS011;9662;53.612;9.914;2022-10-13T09:20:04;12.90;;;7.90;;
19057;SDS011;9662;53.612;9.914;2022-10-13T09:22:36;13.80;;;8.10;;
19057;SDS011;9662;53.612;9.914;2022-10-13T09:25:09;16.13;;;8.00;;
19057;SDS011;9662;53.612;9.914;2022-10-13T09:27:47;10.48;;;7.60;;
19057;SDS011;9662;53.612;9.914;2022-10-13T09:30:23;16.50;;;8.67;;
19057;SDS011;9662;53.612;9.914;2022-10-13T09:32:55;15.23;;;8.65;;
19057;SDS011;9662;53.612;9.914;2022-10-13T09:35:39;16.80;;;8.10;;
19057;SDS011;9662;53.612;9.914;2022-10-13T09:38:09;15.80;;;7.82;;
19057;SDS011;9662;53.612;9.914;2022-10-13T09:40:39;16.08;;;8.02;;
19057;SDS011;9662;53.612;9.914;2022-10-13T09:43:16;11.23;;;7.97;;
19057;SDS011;9662;53.612;9.914;2022-10-13T09:45:52;14.77;;;7.78;;
19057;SDS011;9662;53.612;9.914;2022-10-13T09:48:20;19.20;;;8.90;;
19057;SDS011;9662;53.612;9.914;2022-10-13T09:50:51;8.98;;;7.45;;
19057;SDS011;9662;53.612;9.914;2022-10-13T09:53:21;14.38;;;7.68;;
19057;SDS011;9662;53.612;9.914;2022-10-13T09:56:05;12.98;;;8.40;;
19057;SDS011;9662;53.612;9.914;2022-10-13T09:58:43;22.52;;;8.13;;
19057;SDS011;9662;53.612;9.914;2022-10-13T10:01:17;14.13;;;7.18;;
19057;SDS011;9662;53.612;9.914;2022-10-13T10:03:47;12.63;;;7.43;;
19057;SDS011;9662;53.612;9.914;2022-10-13T10:06:15;11.85;;;7.95;;
19057;SDS011;9662;53.612;9.914;2022-10-13T10:08:43;13.63;;;8.25;;
19057;SDS011;9662;53.612;9.914;2022-10-13T10:11:18;14.07;;;7.50;;
19057;SDS011;9662;53.612;9.914;2022-10-13T10:13:50;16.75;;;7.55;;
19057;SDS011;9662;53.612;9.914;2022-10-13T10:16:18;13.77;;;7.72;;
19057;SDS011;9662;53.612;9.914;2022-10-13T10:18:54;19.15;;;8.25;;
19057;SDS011;9662;53.612;9.914;2022-10-13T10:21:29;14.90;;;8.33;;
19057;SDS011;9662;53.612;9.914;2022-10-13T10:24:01;14.82;;;8.38;;
19057;SDS011;9662;53.612;9.914;2022-10-13T10:26:38;13.85;;;8.57;;
19057;SDS011;9662;53.612;9.914;2022-10-13T10:29:15;11.48;;;8.05;;
19057;SDS011;9662;53.612;9.914;2022-10-13T10:31:50;13.02;;;8.20;;
19057;SDS011;9662;53.612;9.914;2022-10-13T10:34:27;14.02;;;7.97;;
19057;SDS011;9662;53.612;9.914;2022-10-13T10:37:05;15.35;;;8.00;;
19057;SDS011;9662;53.612;9.914;2022-10-13T10:39:45;13.10;;;7.90;;
19057;SDS011;9662;53.612;9.914;2022-10-13T10:45:17;16.15;;;8.32;;
19057;SDS011;9662;53.612;9.914;2022-10-13T10:47:46;11.43;;;7.85;;
19057;SDS011;9662;53.612;9.914;2022-10-13T10:50:17;12.98;;;7.85;;
19057;SDS011;9662;53.612;9.914;2022-10-13T10:52:47;14.38;;;7.80;;
19057;SDS011;9662;53.612;9.914;2022-10-13T10:55:19;19.77;;;7.47;;
19057;SDS011;9662;53.612;9.914;2022-10-13T10:57:55;13.95;;;7.95;;
19057;SDS011;9662;53.612;9.914;2022-10-13T11:00:29;8.63;;;7.75;;
19057;SDS011;9662;53.612;9.914;2022-10-13T11:03:05;12.50;;;8.02;;
19057;SDS011;9662;53.612;9.914;2022-10-13T11:05:57;10.55;;;7.78;;
19057;SDS011;9662;53.612;9.914;2022-10-13T11:08:27;14.38;;;7.75;;
19057;SDS011;9662;53.612;9.914;2022-10-13T11:14:01;13.63;;;7.93;;
19057;SDS011;9662;53.612;9.914;2022-10-13T11:17:01;11.05;;;7.53;;
19057;SDS011;9662;53.612;9.914;2022-10-13T11:19:36;11.88;;;7.75;;
19057;SDS011;9662;53.612;9.914;2022-10-13T11:22:09;12.70;;;7.95;;
19057;SDS011;9662;53.612;9.914;2022-10-13T11:24:48;17.67;;;8.32;;
19057;SDS011;9662;53.612;9.914;2022-10-13T11:27:18;16.63;;;8.43;;
19057;SDS011;9662;53.612;9.914;2022-10-13T11:29:52;15.70;;;8.30;;
19057;SDS011;9662;53.612;9.914;2022-10-13T11:35:23;12.43;;;8.45;;
19057;SDS011;9662;53.612;9.914;2022-10-13T11:40:57;11.70;;;7.30;;
19057;SDS011;9662;53.612;9.914;2022-10-13T11:43:40;11.43;;;7.35;;
19057;SDS011;9662;53.612;9.914;2022-10-13T11:46:20;12.63;;;7.93;;
19057;SDS011;9662;53.612;9.914;2022-10-13T11:55:10;14.70;;;6.95;;
19057;SDS011;9662;53.612;9.914;2022-10-13T11:57:40;9.83;;;7.17;;
19057;SDS011;9662;53.612;9.914;2022-10-13T12:00:10;7.25;;;6.30;;
19057;SDS011;9662;53.612;9.914;2022-10-13T12:02:47;8.43;;;6.47;;
19057;SDS011;9662;53.612;9.914;2022-10-13T12:05:21;14.30;;;7.23;;
19057;SDS011;9662;53.612;9.914;2022-10-13T12:07:49;13.70;;;7.28;;
19057;SDS011;9662;53.612;9.914;2022-10-13T12:10:19;13.02;;;7.25;;
19057;SDS011;9662;53.612;9.914;2022-10-13T12:12:50;10.85;;;7.28;;
19057;SDS011;9662;53.612;9.914;2022-10-13T12:15:26;11.65;;;7.38;;
19057;SDS011;9662;53.612;9.914;2022-10-13T12:17:57;10.52;;;7.25;;
19057;SDS011;9662;53.612;9.914;2022-10-13T12:20:24;11.10;;;7.30;;
19057;SDS011;9662;53.612;9.914;2022-10-13T12:22:52;15.20;;;7.53;;
19057;SDS011;9662;53.612;9.914;2022-10-13T12:25:21;11.27;;;6.88;;
19057;SDS011;9662;53.612;9.914;2022-10-13T12:27:50;14.32;;;7.90;;
19057;SDS011;9662;53.612;9.914;2022-10-13T12:30:19;10.05;;;6.47;;
19057;SDS011;9662;53.612;9.914;2022-10-13T12:32:47;15.15;;;7.20;;
19057;SDS011;9662;53.612;9.914;2022-10-13T12:35:18;12.95;;;7.35;;
19057;SDS011;9662;53.612;9.914;2022-10-13T12:37:47;10.75;;;7.63;;
19057;SDS011;9662;53.612;9.914;2022-10-13T12:40:16;14.40;;;6.90;;
19057;SDS011;9662;53.612;9.914;2022-10-13T12:42:44;8.23;;;6.53;;
19057;SDS011;9662;53.612;9.914;2022-10-13T12:45:13;10.93;;;7.90;;
19057;SDS011;9662;53.612;9.914;2022-10-13T12:47:46;14.77;;;8.82;;
19057;SDS011;9662;53.612;9.914;2022-10-13T12:50:30;12.65;;;7.20;;
19057;SDS011;9662;53.612;9.914;2022-10-13T12:53:08;16.58;;;8.27;;
19057;SDS011;9662;53.612;9.914;2022-10-13T12:55:46;9.75;;;7.43;;
19057;SDS011;9662;53.612;9.914;2022-10-13T12:58:17;18.77;;;7.60;;
19057;SDS011;9662;53.612;9.914;2022-10-13T13:00:53;14.35;;;7.57;;
19057;SDS011;9662;53.612;9.914;2022-10-13T13:03:22;9.50;;;6.78;;
19057;SDS011;9662;53.612;9.914;2022-10-13T13:06:06;12.10;;;6.72;;
19057;SDS011;9662;53.612;9.914;2022-10-13T13:08:35;11.80;;;6.53;;
19057;SDS011;9662;53.612;9.914;2022-10-13T13:11:03;20.92;;;7.95;;
19057;SDS011;9662;53.612;9.914;2022-10-13T13:13:32;10.77;;;7.07;;
19057;SDS011;9662;53.612;9.914;2022-10-13T13:16:11;16.38;;;7.63;;
19057;SDS011;9662;53.612;9.914;2022-10-13T13:18:40;19.97;;;7.30;;
19057;SDS011;9662;53.612;9.914;2022-10-13T13:21:10;12.70;;;7.75;;
19057;SDS011;9662;53.612;9.914;2022-10-13T13:23:38;13.47;;;7.27;;
19057;SDS011;9662;53.612;9.914;2022-10-13T13:26:09;10.20;;;6.63;;
19057;SDS011;9662;53.612;9.914;2022-10-13T13:28:38;10.85;;;6.97;;
19057;SDS011;9662;53.612;9.914;2022-10-13T13:31:08;8.05;;;6.68;;
19057;SDS011;9662;53.612;9.914;2022-10-13T13:33:36;11.45;;;6.50;;
19057;SDS011;9662;53.612;9.914;2022-10-13T13:36:03;10.55;;;7.18;;
19057;SDS011;9662;53.612;9.914;2022-10-13T13:38:32;10.48;;;6.85;;
19057;SDS011;9662;53.612;9.914;2022-10-13T13:40:58;12.57;;;6.82;;
19057;SDS011;9662;53.612;9.914;2022-10-13T13:43:25;10.32;;;6.88;;
19057;SDS011;9662;53.612;9.914;2022-10-13T13:45:52;8.73;;;6.88;;
19057;SDS011;9662;53.612;9.914;2022-10-13T13:48:18;10.15;;;7.43;;
19057;SDS011;9662;53.612;9.914;2022-10-13T13:50:45;8.85;;;6.93;;
19057;SDS011;9662;53.612;9.914;2022-10-13T13:53:12;14.18;;;6.85;;
19057;SDS011;9662;53.612;9.914;2022-10-13T13:55:40;9.15;;;6.72;;
19057;SDS011;9662;53.612;9.914;2022-10-13T13:58:08;12.45;;;7.32;;
19057;SDS011;9662;53.612;9.914;2022-10-13T14:00:35;12.50;;;7.47;;
19057;SDS011;9662;53.612;9.914;2022-10-13T14:03:02;8.95;;;7.35;;
19057;SDS011;9662;53.612;9.914;2022-10-13T14:05:29;10.68;;;7.05;;
19057;SDS011;9662;53.612;9.914;2022-10-13T14:07:56;9.18;;;6.38;;
19057;SDS011;9662;53.612;9.914;2022-10-13T14:10:23;13.43;;;6.68;;
19057;SDS011;9662;53.612;9.914;2022-10-13T14:12:52;8.50;;;6.78;;
19057;SDS011;9662;53.612;9.914;2022-10-13T14:15:18;13.23;;;6.90;;
19057;SDS011;9662;53.612;9.914;2022-10-13T14:17:45;8.32;;;6.63;;
19057;SDS011;9662;53.612;9.914;2022-10-13T14:20:12;11.03;;;7.30;;
19057;SDS011;9662;53.612;9.914;2022-10-13T14:22:39;11.80;;;6.60;;
19057;SDS011;9662;53.612;9.914;2022-10-13T14:25:06;12.30;;;6.93;;
19057;SDS011;9662;53.612;9.914;2022-10-13T14:27:33;12.50;;;6.85;;
19057;SDS011;9662;53.612;9.914;2022-10-13T14:30:02;7.20;;;6.57;;
19057;SDS011;9662;53.612;9.914;2022-10-13T14:32:29;17.13;;;7.78;;
19057;SDS011;9662;53.612;9.914;2022-10-13T14:34:56;14.77;;;7.80;;
19057;SDS011;9662;53.612;9.914;2022-10-13T14:37:22;17.45;;;7.20;;
19057;SDS011;9662;53.612;9.914;2022-10-13T14:39:49;15.87;;;7.13;;
19057;SDS011;9662;53.612;9.914;2022-10-13T14:42:16;12.27;;;7.35;;
19057;SDS011;9662;53.612;9.914;2022-10-13T14:44:42;77.30;;;11.23;;
19057;SDS011;9662;53.612;9.914;2022-10-13T14:47:11;149.65;;;13.50;;
19057;SDS011;9662;53.612;9.914;2022-10-13T14:49:37;43.20;;;7.63;;
19057;SDS011;9662;53.612;9.914;2022-10-13T14:52:04;28.05;;;7.25;;
19057;SDS011;9662;53.612;9.914;2022-10-13T14:54:31;12.13;;;6.82;;
19057;SDS011;9662;53.612;9.914;2022-10-13T14:56:58;8.90;;;6.03;;
19057;SDS011;9662;53.612;9.914;2022-10-13T14:59:29;9.55;;;6.35;;
19057;SDS011;9662;53.612;9.914;2022-10-13T15:01:55;9.25;;;6.00;;
19057;SDS011;9662;53.612;9.914;2022-10-13T15:04:24;14.65;;;6.35;;
19057;SDS011;9662;53.612;9.914;2022-10-13T15:06:50;6.13;;;5.55;;
19057;SDS011;9662;53.612;9.914;2022-10-13T15:09:17;12.05;;;5.88;;
19057;SDS011;9662;53.612;9.914;2022-10-13T15:11:44;10.88;;;5.82;;
19057;SDS011;9662;53.612;9.914;2022-10-13T15:14:11;6.18;;;5.47;;
19057;SDS011;9662;53.612;9.914;2022-10-13T15:16:38;11.00;;;6.23;;
19057;SDS011;9662;53.612;9.914;2022-10-13T15:19:05;9.75;;;6.10;;
19057;SDS011;9662;53.612;9.914;2022-10-13T15:21:33;7.07;;;5.97;;
19057;SDS011;9662;53.612;9.914;2022-10-13T15:23:59;11.90;;;6.50;;
19057;SDS011;9662;53.612;9.914;2022-10-13T15:26:26;13.85;;;6.70;;
19057;SDS011;9662;53.612;9.914;2022-10-13T15:28:53;10.05;;;6.25;;
19057;SDS011;9662;53.612;9.914;2022-10-13T15:31:20;13.80;;;6.80;;
19057;SDS011;9662;53.612;9.914;2022-10-13T15:33:49;11.02;;;6.38;;